Time;durP1;ratioP1;P1;durP2;ratioP2;P2;SDS_P1;SDS_P2;PMS_P1;PMS_P2;Temp;Humidity;BMP_temperature;BMP_pressure;BME280_temperature;BME280_humidity;BME280_pressure;Samples;Min_cycle;Max_cycle;Signal;HPM_P1;HPM_P2
2022/07/06 00:21:14;;;;;;;6.68;1.50;;;;;;;;;;5071721;28;20104;-84
2022/07/06 00:43:18;;;;;;;5.65;1.45;;;;;;;;;;5094668;28;20040;-84
2022/07/06 01:22:48;;;;;;;2.22;1.13;;;;;;;;;;5003796;28;20046;-84
2022/07/06 01:27:14;;;;;;;3.53;1.33;;;;;;;;;;4953227;28;20055;-84
2022/07/06 01:31:46;;;;;;;6.05;1.27;;;;;;;;;;4926296;29;20043;-84
2022/07/06 01:34:28;;;;;;;3.65;1.00;;;;;;;;;;4908577;29;20173;-84
2022/07/06 01:46:39;;;;;;;2.17;0.80;;;;;;;;;;4948974;28;20157;-85
2022/07/06 01:49:25;;;;;;;5.53;1.10;;;;;;;;;;4925854;28;20059;-85
2022/07/06 04:01:13;;;;;;;2.67;0.90;;;;;;;;;;5094457;28;20043;-84
2022/07/06 04:59:45;;;;;;;2.38;0.93;;;;;;;;;;5095553;28;20028;-83
2022/07/06 05:02:37;;;;;;;3.30;1.13;;;;;;;;;;5098354;28;20049;-83
2022/07/06 05:05:16;;;;;;;4.82;1.30;;;;;;;;;;5087719;28;20052;-83
2022/07/06 05:07:45;;;;;;;4.20;1.00;;;;;;;;;;5085501;28;20174;-84
2022/07/06 05:10:15;;;;;;;3.35;0.90;;;;;;;;;;5082330;28;20086;-84
2022/07/06 05:12:51;;;;;;;5.88;1.17;;;;;;;;;;5069201;28;20131;-83
2022/07/06 05:15:19;;;;;;;3.63;0.98;;;;;;;;;;5082120;27;20595;-82
2022/07/06 05:17:47;;;;;;;3.30;1.10;;;;;;;;;;5079624;28;20059;-84
2022/07/06 05:20:27;;;;;;;4.75;1.02;;;;;;;;;;5087873;28;20131;-83
2022/07/06 05:22:57;;;;;;;4.70;1.10;;;;;;;;;;5079821;28;20058;-84
2022/07/06 05:25:51;;;;;;;4.55;1.17;;;;;;;;;;5104571;28;20056;-81
2022/07/06 05:28:46;;;;;;;3.33;0.85;;;;;;;;;;5094515;28;20036;-82
2022/07/06 05:31:38;;;;;;;7.30;1.40;;;;;;;;;;5072139;27;20040;-85
2022/07/06 05:34:57;;;;;;;7.78;1.38;;;;;;;;;;5088494;28;20063;-83
2022/07/06 05:37:45;;;;;;;5.28;1.52;;;;;;;;;;5088049;28;20059;-83
2022/07/06 05:40:13;;;;;;;6.25;1.23;;;;;;;;;;5095153;28;20067;-82
2022/07/06 05:42:41;;;;;;;3.75;1.45;;;;;;;;;;5075496;28;20058;-82
2022/07/06 05:45:09;;;;;;;7.45;1.40;;;;;;;;;;5073949;28;20039;-82
2022/07/06 05:50:49;;;;;;;3.63;1.08;;;;;;;;;;5101656;28;20178;-82
2022/07/06 05:54:05;;;;;;;4.13;1.38;;;;;;;;;;5098394;28;20059;-83
2022/07/06 05:56:33;;;;;;;6.18;1.40;;;;;;;;;;5088243;28;20051;-82
2022/07/06 05:59:27;;;;;;;4.22;1.50;;;;;;;;;;5083512;28;20050;-83
2022/07/06 06:01:59;;;;;;;4.88;1.27;;;;;;;;;;5092631;28;20113;-82
2022/07/06 06:04:27;;;;;;;4.55;1.13;;;;;;;;;;5096209;28;20044;-83
2022/07/06 06:06:59;;;;;;;5.10;1.45;;;;;;;;;;5070379;28;20425;-83
2022/07/06 06:09:51;;;;;;;5.18;1.25;;;;;;;;;;5079328;28;20059;-83
2022/07/06 06:12:25;;;;;;;5.93;1.55;;;;;;;;;;5076125;28;20048;-82
2022/07/06 06:15:19;;;;;;;5.25;1.30;;;;;;;;;;5078365;28;20146;-83
2022/07/06 06:17:47;;;;;;;7.00;1.08;;;;;;;;;;5078175;28;20421;-83
2022/07/06 06:20:15;;;;;;;5.65;1.33;;;;;;;;;;5069147;28;20052;-82
2022/07/06 06:22:51;;;;;;;6.47;1.30;;;;;;;;;;5094237;27;20039;-83
2022/07/06 06:25:27;;;;;;;4.63;1.25;;;;;;;;;;5076963;27;20405;-83
2022/07/06 06:27:55;;;;;;;5.57;1.63;;;;;;;;;;5095351;28;20044;-83
2022/07/06 06:30:27;;;;;;;5.18;1.10;;;;;;;;;;5094406;28;20051;-83
2022/07/06 06:33:09;;;;;;;6.18;1.25;;;;;;;;;;5056196;28;20694;-83
2022/07/06 06:35:36;;;;;;;4.50;1.45;;;;;;;;;;5078387;28;20067;-83
2022/07/06 06:38:03;;;;;;;3.97;1.25;;;;;;;;;;5082735;28;20506;-83
2022/07/06 06:40:32;;;;;;;11.98;1.60;;;;;;;;;;5094208;28;20067;-83
2022/07/06 06:43:23;;;;;;;6.00;1.00;;;;;;;;;;5078914;28;20512;-83
2022/07/06 06:46:18;;;;;;;2.78;0.88;;;;;;;;;;5085470;28;20047;-82
2022/07/06 06:48:45;;;;;;;5.82;1.33;;;;;;;;;;5091728;27;20048;-82
2022/07/06 06:51:13;;;;;;;3.05;0.93;;;;;;;;;;5094259;28;20075;-84
2022/07/06 06:53:45;;;;;;;2.08;0.88;;;;;;;;;;5092247;28;20070;-83
2022/07/06 06:56:13;;;;;;;4.57;1.10;;;;;;;;;;5092086;28;20051;-83
2022/07/06 06:58:41;;;;;;;4.68;1.10;;;;;;;;;;5076606;28;20051;-83
2022/07/06 07:01:29;;;;;;;2.78;1.02;;;;;;;;;;5092575;28;20125;-83
2022/07/06 07:04:23;;;;;;;2.70;0.93;;;;;;;;;;5079958;28;20047;-83
2022/07/06 07:06:55;;;;;;;6.32;1.20;;;;;;;;;;5092460;27;20449;-83
2022/07/06 07:09:47;;;;;;;3.88;1.02;;;;;;;;;;5066947;28;20131;-84
2022/07/06 07:12:16;;;;;;;5.03;1.10;;;;;;;;;;5076856;28;20477;-83
2022/07/06 07:14:44;;;;;;;3.65;1.23;;;;;;;;;;5094285;28;20075;-83
2022/07/06 07:17:12;;;;;;;4.90;1.27;;;;;;;;;;5075132;28;20052;-83
2022/07/06 07:20:11;;;;;;;5.95;1.13;;;;;;;;;;5093306;28;20054;-84
2022/07/06 07:22:39;;;;;;;7.95;1.30;;;;;;;;;;5094233;27;20135;-83
2022/07/06 07:25:11;;;;;;;6.90;1.20;;;;;;;;;;5076447;28;20052;-83
2022/07/06 07:32:21;;;;;;;3.95;0.95;;;;;;;;;;5038657;28;20064;-86
2022/07/06 07:34:59;;;;;;;6.60;1.13;;;;;;;;;;5042244;28;20057;-86
2022/07/06 07:37:33;;;;;;;2.22;1.08;;;;;;;;;;5023906;28;20072;-86
2022/07/06 07:40:04;;;;;;;4.28;1.38;;;;;;;;;;5037256;28;20057;-86
2022/07/06 07:42:45;;;;;;;4.75;0.88;;;;;;;;;;5023711;28;20400;-85
2022/07/06 07:45:19;;;;;;;4.47;1.13;;;;;;;;;;5041458;28;20565;-86
2022/07/06 07:47:47;;;;;;;7.60;1.40;;;;;;;;;;5039622;28;20049;-86
2022/07/06 07:50:58;;;;;;;4.25;0.75;;;;;;;;;;5022810;28;20049;-86
2022/07/06 07:58:08;;;;;;;4.88;1.20;;;;;;;;;;4997303;28;20683;-85
2022/07/06 08:00:39;;;;;;;3.67;1.20;;;;;;;;;;4998543;28;20053;-86
2022/07/06 08:03:25;;;;;;;4.25;1.55;;;;;;;;;;5021749;28;20168;-85
2022/07/06 08:06:17;;;;;;;4.28;0.88;;;;;;;;;;5020175;28;20045;-86
2022/07/06 08:09:00;;;;;;;4.03;0.80;;;;;;;;;;5059954;28;20114;-86
2022/07/06 08:11:27;;;;;;;2.13;0.55;;;;;;;;;;5070690;28;20125;-86
2022/07/06 08:13:55;;;;;;;3.97;0.75;;;;;;;;;;5071505;28;20131;-85
2022/07/06 08:17:01;;;;;;;2.38;0.60;;;;;;;;;;5068811;28;20048;-86
2022/07/06 08:19:32;;;;;;;4.05;0.80;;;;;;;;;;5058723;28;20456;-86
2022/07/06 08:22:17;;;;;;;2.70;0.70;;;;;;;;;;5071010;28;20530;-82
2022/07/06 08:24:45;;;;;;;1.20;0.50;;;;;;;;;;5081258;28;20052;-82
2022/07/06 08:27:40;;;;;;;4.53;1.10;;;;;;;;;;5089828;28;20048;-82
2022/07/06 08:30:14;;;;;;;3.13;0.88;;;;;;;;;;5089183;28;20043;-82
2022/07/06 08:32:42;;;;;;;2.90;0.65;;;;;;;;;;5074752;28;20048;-82
2022/07/06 08:35:55;;;;;;;1.38;0.60;;;;;;;;;;5071108;28;20048;-82
2022/07/06 08:38:23;;;;;;;3.45;1.13;;;;;;;;;;5058846;28;20146;-82
2022/07/06 08:40:52;;;;;;;4.82;0.73;;;;;;;;;;5087538;28;20521;-82
2022/07/06 08:43:19;;;;;;;6.35;0.80;;;;;;;;;;5074321;28;20048;-82
2022/07/06 08:45:50;;;;;;;1.27;0.55;;;;;;;;;;5075045;28;20048;-82
2022/07/06 08:48:18;;;;;;;2.00;0.68;;;;;;;;;;5092677;28;20097;-82
2022/07/06 08:50:46;;;;;;;2.20;0.85;;;;;;;;;;5091650;28;20072;-82
2022/07/06 08:53:14;;;;;;;2.55;0.70;;;;;;;;;;5074459;28;20533;-82
2022/07/06 08:55:51;;;;;;;3.15;0.77;;;;;;;;;;5090983;28;20117;-82
2022/07/06 08:58:18;;;;;;;6.50;0.80;;;;;;;;;;5091483;28;20047;-82
2022/07/06 09:00:45;;;;;;;1.92;0.85;;;;;;;;;;5090244;28;20044;-82
2022/07/06 09:03:13;;;;;;;2.38;0.70;;;;;;;;;;5074544;28;20048;-82
2022/07/06 09:05:45;;;;;;;3.28;0.82;;;;;;;;;;5083773;28;20051;-82
2022/07/06 09:08:27;;;;;;;3.90;0.77;;;;;;;;;;5091805;28;20043;-82
2022/07/06 09:10:55;;;;;;;6.65;0.60;;;;;;;;;;5058404;28;20052;-82
2022/07/06 09:13:24;;;;;;;2.10;0.57;;;;;;;;;;5073947;28;20527;-82
2022/07/06 09:15:51;;;;;;;2.50;0.55;;;;;;;;;;5068660;28;20133;-82
2022/07/06 09:19:05;;;;;;;3.88;0.98;;;;;;;;;;5081186;28;20048;-82
2022/07/06 09:21:36;;;;;;;2.30;0.80;;;;;;;;;;5072129;28;20048;-82
2022/07/06 09:24:11;;;;;;;4.53;1.35;;;;;;;;;;5077746;28;21024;-82
2022/07/06 09:26:41;;;;;;;1.25;0.50;;;;;;;;;;5075375;28;20056;-82
2022/07/06 09:29:13;;;;;;;2.50;0.75;;;;;;;;;;5091138;28;20039;-82
2022/07/06 09:31:41;;;;;;;4.30;0.80;;;;;;;;;;5090137;28;21085;-82
2022/07/06 09:34:10;;;;;;;2.33;0.77;;;;;;;;;;5089046;28;20044;-82
2022/07/06 09:36:40;;;;;;;2.17;0.70;;;;;;;;;;5090784;28;20043;-82
2022/07/06 09:39:21;;;;;;;3.88;0.75;;;;;;;;;;5076019;28;20075;-82
2022/07/06 09:42:10;;;;;;;3.47;0.70;;;;;;;;;;5089581;28;20981;-82
2022/07/06 09:44:40;;;;;;;2.58;0.60;;;;;;;;;;5073745;28;20494;-82
2022/07/06 09:47:14;;;;;;;3.05;0.52;;;;;;;;;;5090285;28;20139;-82
2022/07/06 09:49:41;;;;;;;1.63;0.45;;;;;;;;;;5095987;28;20963;-82
2022/07/06 09:52:10;;;;;;;1.55;0.50;;;;;;;;;;5094649;28;20051;-82
2022/07/06 09:54:39;;;;;;;5.63;0.88;;;;;;;;;;5078479;27;20043;-82
2022/07/06 09:57:08;;;;;;;1.98;0.45;;;;;;;;;;5096031;28;20048;-82
2022/07/06 09:59:37;;;;;;;1.23;0.35;;;;;;;;;;5095994;27;20063;-82
2022/07/06 10:04:58;;;;;;;1.17;0.47;;;;;;;;;;5078211;28;20072;-82
2022/07/06 10:07:26;;;;;;;0.90;0.40;;;;;;;;;;5075914;28;20055;-82
2022/07/06 10:09:54;;;;;;;2.55;0.52;;;;;;;;;;5094450;27;20048;-82
2022/07/06 10:12:22;;;;;;;4.50;1.48;;;;;;;;;;5082743;28;20469;-82
2022/07/06 10:14:51;;;;;;;2.53;0.60;;;;;;;;;;5094821;27;20059;-82
2022/07/06 10:17:18;;;;;;;4.32;0.60;;;;;;;;;;5092814;28;20058;-82
2022/07/06 10:42:20;;;;;;;2.00;0.40;;;;;;;;;;5014518;28;20045;-86
2022/07/06 10:56:09;;;;;;;3.20;0.45;;;;;;;;;;5000515;28;20049;-87
2022/07/06 11:00:48;;;;;;;2.28;0.50;;;;;;;;;;4953704;28;20532;-86
2022/07/06 11:04:15;;;;;;;2.22;0.40;;;;;;;;;;4935023;28;20052;-87
2022/07/06 11:07:10;;;;;;;0.87;0.33;;;;;;;;;;4932152;28;20134;-85
2022/07/06 11:11:08;;;;;;;0.75;0.20;;;;;;;;;;4943709;28;20383;-86
2022/07/06 11:39:16;;;;;;;5.10;0.63;;;;;;;;;;4999737;28;20047;-84
2022/07/06 11:56:27;;;;;;;3.92;0.70;;;;;;;;;;4926094;29;20060;-85
2022/07/06 11:58:58;;;;;;;2.80;0.50;;;;;;;;;;4924805;29;20407;-85
2022/07/06 12:02:01;;;;;;;;;;;;;;;;;;4945750;28;20062;-85
2022/07/06 12:04:39;;;;;;;4.30;0.60;;;;;;;;;;4928231;29;19942;-85
2022/07/06 12:07:16;;;;;;;7.93;0.98;;;;;;;;;;4943204;28;20146;-88
2022/07/06 12:10:09;;;;;;;4.00;0.70;;;;;;;;;;4946806;28;20055;-86
2022/07/06 12:13:01;;;;;;;;;;;;;;;;;;4948813;28;20415;-85
2022/07/06 12:15:33;;;;;;;2.70;0.45;;;;;;;;;;5008128;28;20358;-84
2022/07/06 12:18:05;;;;;;;2.38;0.55;;;;;;;;;;4998566;28;20050;-86
2022/07/06 12:20:33;;;;;;;2.55;0.50;;;;;;;;;;5012922;28;20063;-85
2022/07/06 12:23:06;;;;;;;5.00;0.70;;;;;;;;;;5045132;28;20168;-84
2022/07/06 12:25:35;;;;;;;4.15;0.50;;;;;;;;;;5059084;28;20138;-84
2022/07/06 12:28:21;;;;;;;6.75;0.70;;;;;;;;;;5098718;28;20052;-84
2022/07/06 12:31:34;;;;;;;4.20;0.50;;;;;;;;;;5084745;28;20138;-85
2022/07/06 12:34:12;;;;;;;2.17;0.38;;;;;;;;;;5094819;28;20044;-85
2022/07/06 12:36:48;;;;;;;5.22;0.73;;;;;;;;;;5075503;28;20051;-85
2022/07/06 12:39:28;;;;;;;7.28;0.60;;;;;;;;;;5078182;28;20079;-85
2022/07/06 12:42:06;;;;;;;4.32;0.70;;;;;;;;;;5091943;28;20444;-84
2022/07/06 12:44:43;;;;;;;2.92;0.57;;;;;;;;;;5099949;28;20300;-84
2022/07/06 12:47:10;;;;;;;2.92;0.40;;;;;;;;;;5097872;28;20059;-84
2022/07/06 12:49:38;;;;;;;2.58;0.40;;;;;;;;;;5105059;28;20047;-83
2022/07/06 12:52:05;;;;;;;5.40;1.42;;;;;;;;;;5094247;28;20063;-83
2022/07/06 12:54:42;;;;;;;1.50;0.30;;;;;;;;;;5108778;28;20111;-83
2022/07/06 12:57:14;;;;;;;1.63;0.45;;;;;;;;;;5107260;28;20100;-83
2022/07/06 12:59:55;;;;;;;5.70;0.65;;;;;;;;;;5107523;28;20047;-83
2022/07/06 13:02:30;;;;;;;2.83;0.52;;;;;;;;;;5106941;28;20048;-83
2022/07/06 13:05:18;;;;;;;1.20;0.32;;;;;;;;;;5110906;28;20051;-83
2022/07/06 13:07:48;;;;;;;5.10;0.60;;;;;;;;;;5091681;28;20039;-83
2022/07/06 13:10:22;;;;;;;3.20;0.40;;;;;;;;;;5110277;28;20043;-83
2022/07/06 13:12:50;;;;;;;2.72;0.55;;;;;;;;;;5111099;28;20116;-83
2022/07/06 13:15:17;;;;;;;2.50;0.35;;;;;;;;;;5108932;28;20085;-83
2022/07/06 13:17:45;;;;;;;3.88;0.50;;;;;;;;;;5108768;28;20044;-83
2022/07/06 13:20:37;;;;;;;3.28;0.70;;;;;;;;;;5109763;28;20036;-83
2022/07/06 13:23:05;;;;;;;1.05;0.30;;;;;;;;;;5108973;28;20083;-83
2022/07/06 13:25:37;;;;;;;2.22;0.50;;;;;;;;;;5110738;27;20044;-83
2022/07/06 13:28:05;;;;;;;2.05;0.45;;;;;;;;;;5114075;28;20044;-83
2022/07/06 13:30:38;;;;;;;2.40;0.40;;;;;;;;;;5111687;28;20082;-83
2022/07/06 13:33:05;;;;;;;1.48;0.32;;;;;;;;;;5114157;28;20052;-83
2022/07/06 13:35:57;;;;;;;3.40;0.50;;;;;;;;;;5113316;27;20113;-82
2022/07/06 13:38:26;;;;;;;2.05;0.95;;;;;;;;;;5111101;28;20392;-82
2022/07/06 13:41:42;;;;;;;0.95;0.30;;;;;;;;;;5099658;27;20132;-84
2022/07/06 13:44:11;;;;;;;1.90;0.35;;;;;;;;;;5095091;27;20048;-85
2022/07/06 13:46:44;;;;;;;0.75;0.28;;;;;;;;;;5093650;28;20052;-84
2022/07/06 13:49:12;;;;;;;2.28;0.57;;;;;;;;;;5098136;27;20050;-84
2022/07/06 13:51:39;;;;;;;2.00;0.40;;;;;;;;;;5096625;27;20050;-84
2022/07/06 13:54:13;;;;;;;3.60;0.30;;;;;;;;;;5091198;28;20043;-84
2022/07/06 13:56:41;;;;;;;1.05;0.40;;;;;;;;;;5075884;28;20044;-84
2022/07/06 13:59:13;;;;;;;2.00;0.40;;;;;;;;;;5101912;28;20082;-84
2022/07/06 14:01:47;;;;;;;3.40;0.50;;;;;;;;;;5076272;28;20075;-85
2022/07/06 14:04:17;;;;;;;3.47;0.40;;;;;;;;;;5080407;28;20044;-84
2022/07/06 14:06:45;;;;;;;3.13;0.45;;;;;;;;;;5095370;27;20048;-85
2022/07/06 14:09:13;;;;;;;4.15;0.93;;;;;;;;;;5093570;28;20047;-84
2022/07/06 14:11:41;;;;;;;5.15;0.70;;;;;;;;;;5058819;28;20097;-84
2022/07/06 14:14:09;;;;;;;2.70;0.43;;;;;;;;;;5091204;27;20048;-84
2022/07/06 14:16:40;;;;;;;2.63;0.45;;;;;;;;;;5077459;28;20120;-83
2022/07/06 14:19:13;;;;;;;1.02;0.38;;;;;;;;;;5096236;28;20118;-83
2022/07/06 14:21:48;;;;;;;1.90;0.55;;;;;;;;;;5080780;28;20596;-84
2022/07/06 14:24:16;;;;;;;0.43;0.15;;;;;;;;;;5077493;28;20097;-83
2022/07/06 14:26:43;;;;;;;3.03;0.57;;;;;;;;;;5077052;28;20090;-83
2022/07/06 14:29:11;;;;;;;1.42;0.45;;;;;;;;;;5095232;28;20075;-83
2022/07/06 14:31:39;;;;;;;4.03;0.30;;;;;;;;;;5092791;28;20582;-84
2022/07/06 14:34:31;;;;;;;0.70;0.30;;;;;;;;;;5092494;28;20120;-84
2022/07/06 14:36:59;;;;;;;4.47;0.50;;;;;;;;;;5084429;28;20847;-84
2022/07/06 14:39:39;;;;;;;2.90;0.88;;;;;;;;;;5073897;28;20072;-82
2022/07/06 14:42:08;;;;;;;2.17;0.50;;;;;;;;;;5089869;28;20050;-84
2022/07/06 14:44:35;;;;;;;4.32;0.40;;;;;;;;;;5082388;28;20581;-84
2022/07/06 14:47:27;;;;;;;2.15;0.40;;;;;;;;;;5094222;28;20040;-84
2022/07/06 14:49:55;;;;;;;2.95;0.40;;;;;;;;;;5096184;28;20856;-84
2022/07/06 14:52:23;;;;;;;2.60;0.47;;;;;;;;;;5079070;28;20058;-84
2022/07/06 14:54:59;;;;;;;3.63;0.40;;;;;;;;;;5079358;28;20071;-84
2022/07/06 14:57:51;;;;;;;3.25;0.40;;;;;;;;;;5093588;28;20048;-84
2022/07/06 15:00:19;;;;;;;2.53;0.30;;;;;;;;;;5095191;28;20051;-84
2022/07/06 15:02:48;;;;;;;0.73;0.28;;;;;;;;;;5093739;28;20816;-84
2022/07/06 15:05:21;;;;;;;1.33;0.30;;;;;;;;;;5095358;28;20492;-84
2022/07/06 15:08:34;;;;;;;1.10;0.22;;;;;;;;;;5077719;28;20043;-86
2022/07/06 15:11:22;;;;;;;2.22;0.40;;;;;;;;;;5095614;28;20059;-84
2022/07/06 15:14:15;;;;;;;1.98;0.40;;;;;;;;;;5076766;28;20039;-84
2022/07/06 15:17:11;;;;;;;2.22;0.45;;;;;;;;;;5070999;28;20075;-85
2022/07/06 15:19:54;;;;;;;3.20;0.47;;;;;;;;;;5092781;28;20093;-84
2022/07/06 15:22:21;;;;;;;0.93;0.20;;;;;;;;;;5074990;28;20135;-84
2022/07/06 15:24:49;;;;;;;4.43;0.43;;;;;;;;;;5068425;28;20495;-84
2022/07/06 15:27:17;;;;;;;1.13;0.30;;;;;;;;;;5076959;28;20096;-83
2022/07/06 15:29:53;;;;;;;2.85;0.60;;;;;;;;;;5091448;28;20132;-83
2022/07/06 15:32:22;;;;;;;3.67;0.40;;;;;;;;;;5059034;28;20398;-82
2022/07/06 15:34:49;;;;;;;2.88;0.70;;;;;;;;;;5093632;28;20161;-81
2022/07/06 15:37:17;;;;;;;3.22;0.60;;;;;;;;;;5091517;28;20108;-82
2022/07/06 15:39:45;;;;;;;3.05;0.55;;;;;;;;;;5048618;28;20162;-82
2022/07/06 15:42:39;;;;;;;1.90;0.60;;;;;;;;;;5075855;28;20044;-81
2022/07/06 15:45:08;;;;;;;3.80;1.13;;;;;;;;;;5074188;28;20055;-84
2022/07/06 15:47:59;;;;;;;5.07;0.70;;;;;;;;;;5062987;28;20397;-84
2022/07/06 15:50:27;;;;;;;2.55;0.80;;;;;;;;;;5061554;28;20142;-84
2022/07/06 15:52:55;;;;;;;1.40;0.43;;;;;;;;;;5074669;28;20060;-84
2022/07/06 15:55:26;;;;;;;5.20;0.70;;;;;;;;;;5059237;28;20536;-84
2022/07/06 15:58:18;;;;;;;2.10;0.50;;;;;;;;;;5092669;28;20039;-84
2022/07/06 16:00:45;;;;;;;2.40;0.80;;;;;;;;;;5091317;28;20052;-84
2022/07/06 16:03:14;;;;;;;3.70;0.98;;;;;;;;;;5091361;28;20052;-84
2022/07/06 16:05:41;;;;;;;3.20;0.80;;;;;;;;;;5079103;28;20127;-84
2022/07/06 16:08:30;;;;;;;3.50;0.90;;;;;;;;;;5092727;28;20055;-86
2022/07/06 16:11:21;;;;;;;4.38;1.33;;;;;;;;;;5083839;28;20036;-82
2022/07/06 16:13:53;;;;;;;4.22;0.80;;;;;;;;;;5059871;28;20138;-83
2022/07/06 16:16:29;;;;;;;4.53;0.90;;;;;;;;;;5059543;28;20142;-82
2022/07/06 16:19:01;;;;;;;3.42;0.90;;;;;;;;;;5090202;28;20083;-82
2022/07/06 16:21:29;;;;;;;1.77;0.57;;;;;;;;;;5080023;28;20051;-82
2022/07/06 16:24:21;;;;;;;2.88;0.50;;;;;;;;;;5075513;28;20082;-82
2022/07/06 16:27:15;;;;;;;2.30;0.60;;;;;;;;;;5072419;28;20146;-82
2022/07/06 16:29:47;;;;;;;4.32;0.80;;;;;;;;;;5092666;28;20487;-82
2022/07/06 16:35:13;;;;;;;2.17;0.77;;;;;;;;;;5092053;28;20036;-82
2022/07/06 16:38:05;;;;;;;3.60;0.93;;;;;;;;;;5074816;28;20071;-81
2022/07/06 16:40:34;;;;;;;5.22;1.55;;;;;;;;;;5092639;28;20073;-81
2022/07/06 16:43:01;;;;;;;4.82;1.27;;;;;;;;;;5094663;28;20501;-82
2022/07/06 16:45:29;;;;;;;4.38;1.23;;;;;;;;;;5076135;28;20048;-82
2022/07/06 16:48:01;;;;;;;3.95;1.10;;;;;;;;;;5091263;28;20113;-83
2022/07/06 16:50:39;;;;;;;4.28;0.85;;;;;;;;;;5092301;28;20525;-82
2022/07/06 16:53:05;;;;;;;3.13;0.70;;;;;;;;;;5091750;28;20052;-82
2022/07/06 16:55:57;;;;;;;2.53;0.68;;;;;;;;;;5088591;28;20533;-83
2022/07/06 16:58:25;;;;;;;5.00;0.60;;;;;;;;;;5080756;28;20117;-83
2022/07/06 17:01:01;;;;;;;6.22;1.13;;;;;;;;;;5076128;28;20130;-83
2022/07/06 17:03:29;;;;;;;3.30;0.63;;;;;;;;;;5082515;28;21819;-83
2022/07/06 17:05:58;;;;;;;4.80;0.90;;;;;;;;;;5078520;28;20142;-82
2022/07/06 17:08:27;;;;;;;2.67;0.73;;;;;;;;;;5094560;28;20152;-83
2022/07/06 17:11:02;;;;;;;2.63;0.77;;;;;;;;;;5095593;28;20473;-83
2022/07/06 17:13:30;;;;;;;2.90;0.63;;;;;;;;;;5094255;28;20079;-83
2022/07/06 17:15:57;;;;;;;3.47;0.70;;;;;;;;;;5093253;28;20070;-84
2022/07/06 17:18:34;;;;;;;4.72;0.65;;;;;;;;;;5094678;28;20763;-83
2022/07/06 17:21:01;;;;;;;1.95;0.82;;;;;;;;;;5081101;28;20122;-83
2022/07/06 17:23:49;;;;;;;3.40;0.90;;;;;;;;;;5063400;28;20079;-83
2022/07/06 17:26:30;;;;;;;2.03;0.52;;;;;;;;;;5065154;28;20119;-83
2022/07/06 17:29:11;;;;;;;2.08;0.77;;;;;;;;;;5074653;28;20054;-83
2022/07/06 17:31:39;;;;;;;4.40;0.88;;;;;;;;;;5090955;28;20082;-83
2022/07/06 17:34:19;;;;;;;3.60;0.80;;;;;;;;;;5094471;28;20179;-84
2022/07/06 17:37:05;;;;;;;3.28;0.73;;;;;;;;;;5080174;28;20074;-84
2022/07/06 17:39:47;;;;;;;8.25;1.10;;;;;;;;;;5048871;28;20089;-84
2022/07/06 17:42:36;;;;;;;2.17;0.57;;;;;;;;;;5092658;28;20525;-84
2022/07/06 17:46:37;;;;;;;6.00;0.80;;;;;;;;;;5093439;28;20509;-84
2022/07/06 17:49:32;;;;;;;3.17;0.68;;;;;;;;;;5094168;28;20040;-84
2022/07/06 17:58:25;;;;;;;3.55;0.85;;;;;;;;;;5002438;28;20084;-85
2022/07/06 18:01:08;;;;;;;4.40;1.02;;;;;;;;;;4999149;28;20088;-85
2022/07/06 18:03:57;;;;;;;2.78;0.85;;;;;;;;;;4968749;28;20042;-85
2022/07/06 18:06:59;;;;;;;2.65;0.70;;;;;;;;;;4966508;28;20054;-85
2022/07/06 18:10:43;;;;;;;7.90;1.02;;;;;;;;;;5000160;28;20435;-85
2022/07/06 18:14:37;;;;;;;3.05;0.80;;;;;;;;;;5003044;28;20038;-84
2022/07/06 18:22:56;;;;;;;7.05;1.08;;;;;;;;;;4952155;28;20046;-86
2022/07/06 18:25:47;;;;;;;2.80;0.73;;;;;;;;;;4961017;28;20516;-87
2022/07/06 18:28:28;;;;;;;3.03;0.90;;;;;;;;;;5032112;28;20099;-87
2022/07/06 18:31:32;;;;;;;2.40;0.90;;;;;;;;;;5010384;28;20062;-83
2022/07/06 18:34:57;;;;;;;2.55;1.00;;;;;;;;;;4984396;28;20052;-84
2022/07/06 18:37:38;;;;;;;3.70;0.88;;;;;;;;;;4981649;28;20058;-81
2022/07/06 18:40:06;;;;;;;4.07;0.98;;;;;;;;;;4967204;28;20046;-81
2022/07/06 18:42:40;;;;;;;2.65;0.65;;;;;;;;;;4985619;28;20058;-81
2022/07/06 18:45:33;;;;;;;2.72;0.73;;;;;;;;;;4986499;28;20049;-83
2022/07/06 18:48:01;;;;;;;1.48;0.73;;;;;;;;;;4968788;28;20048;-83
2022/07/06 18:50:29;;;;;;;6.28;1.55;;;;;;;;;;4985269;28;20058;-84
2022/07/06 18:53:06;;;;;;;4.18;1.00;;;;;;;;;;4971113;28;20057;-84
2022/07/06 18:55:48;;;;;;;5.20;0.60;;;;;;;;;;4993437;28;20400;-83
2022/07/06 18:58:21;;;;;;;4.53;0.98;;;;;;;;;;4987910;28;20050;-84
2022/07/06 19:01:15;;;;;;;3.83;0.70;;;;;;;;;;5017582;28;20131;-83
2022/07/06 19:03:55;;;;;;;2.55;0.60;;;;;;;;;;5027334;28;20106;-84
2022/07/06 19:06:49;;;;;;;3.95;0.70;;;;;;;;;;5097066;28;20075;-83
2022/07/06 19:09:21;;;;;;;3.03;0.80;;;;;;;;;;5093769;28;20075;-84
2022/07/06 19:11:49;;;;;;;2.03;0.90;;;;;;;;;;5096215;28;20051;-83
2022/07/06 19:14:19;;;;;;;4.00;0.75;;;;;;;;;;5095492;28;20048;-84
2022/07/06 19:16:51;;;;;;;2.90;0.93;;;;;;;;;;5078305;28;20047;-83
2022/07/06 19:19:21;;;;;;;3.15;0.90;;;;;;;;;;5095823;28;20484;-82
2022/07/06 19:21:55;;;;;;;3.30;0.80;;;;;;;;;;5095869;28;20139;-83
2022/07/06 19:24:27;;;;;;;8.73;0.90;;;;;;;;;;5062964;28;20051;-83
2022/07/06 19:27:34;;;;;;;2.30;0.95;;;;;;;;;;5093814;28;20044;-83
2022/07/06 19:30:02;;;;;;;5.82;0.93;;;;;;;;;;5080634;28;20051;-83
2022/07/06 19:32:33;;;;;;;5.22;1.10;;;;;;;;;;5059663;28;20056;-83
2022/07/06 19:35:01;;;;;;;2.88;1.00;;;;;;;;;;5061320;28;20044;-83
2022/07/06 19:37:34;;;;;;;2.13;0.90;;;;;;;;;;5094049;28;20077;-83
2022/07/06 19:40:48;;;;;;;3.28;0.90;;;;;;;;;;5101558;28;20132;-83
2022/07/06 19:43:16;;;;;;;3.03;1.15;;;;;;;;;;5076294;28;20711;-83
2022/07/06 19:45:57;;;;;;;4.45;0.90;;;;;;;;;;5090916;28;20511;-83
2022/07/06 19:48:25;;;;;;;4.15;0.75;;;;;;;;;;5058086;28;20050;-83
2022/07/06 19:51:03;;;;;;;3.58;0.90;;;;;;;;;;5078243;28;20056;-82
2022/07/06 19:53:36;;;;;;;5.30;1.30;;;;;;;;;;5064353;28;20079;-83
2022/07/06 19:56:18;;;;;;;6.20;1.17;;;;;;;;;;5079234;28;20058;-82
2022/07/06 19:58:49;;;;;;;3.67;1.10;;;;;;;;;;5081044;28;20972;-83
2022/07/06 20:01:17;;;;;;;6.30;1.40;;;;;;;;;;5096125;28;20063;-83
2022/07/06 20:03:45;;;;;;;2.78;1.15;;;;;;;;;;5095152;28;20047;-83
2022/07/06 20:06:17;;;;;;;5.15;1.30;;;;;;;;;;5092824;28;21000;-83
2022/07/06 20:08:45;;;;;;;3.63;1.30;;;;;;;;;;5076099;28;20069;-82
2022/07/06 20:11:14;;;;;;;3.92;1.05;;;;;;;;;;5066278;28;20062;-82
2022/07/06 20:14:27;;;;;;;3.03;1.30;;;;;;;;;;5082821;28;20054;-83
2022/07/06 20:17:58;;;;;;;4.35;1.13;;;;;;;;;;5083226;28;20052;-84
2022/07/06 20:21:34;;;;;;;4.72;1.20;;;;;;;;;;5088724;28;20055;-83
2022/07/06 20:24:57;;;;;;;4.95;1.70;;;;;;;;;;5089160;28;20044;-85
2022/07/06 20:34:31;;;;;;;3.97;1.70;;;;;;;;;;4855336;29;20061;-84
2022/07/06 20:38:47;;;;;;;6.60;1.58;;;;;;;;;;4810666;29;20065;-86
2022/07/06 20:42:51;;;;;;;3.20;1.60;;;;;;;;;;4783075;29;20142;-86
2022/07/06 21:01:40;;;;;;;4.68;1.40;;;;;;;;;;4789855;29;20046;-85
2022/07/06 21:10:56;;;;;;;6.28;1.50;;;;;;;;;;4811379;29;20057;-85
2022/07/06 21:15:10;;;;;;;;;;;;;;;;;;4849917;29;20049;-84
2022/07/06 21:19:40;;;;;;;4.82;1.42;;;;;;;;;;4865244;29;20538;-83
2022/07/06 21:24:04;;;;;;;2.80;1.40;;;;;;;;;;4866860;29;20053;-84
2022/07/06 21:38:06;;;;;;;4.00;1.50;;;;;;;;;;4739853;30;20064;-84
2022/07/06 21:42:37;;;;;;;4.25;1.80;;;;;;;;;;4720614;30;20064;-84
2022/07/06 21:52:19;;;;;;;4.10;1.83;;;;;;;;;;4690278;30;20057;-85
2022/07/06 21:56:51;;;;;;;4.70;1.80;;;;;;;;;;4741350;30;20222;-85
2022/07/06 22:01:29;;;;;;;5.93;2.28;;;;;;;;;;4781417;29;20057;-85
2022/07/06 22:06:06;;;;;;;5.20;2.22;;;;;;;;;;4795785;29;20051;-85
2022/07/06 22:10:57;;;;;;;3.92;2.17;;;;;;;;;;4760336;30;20066;-85
2022/07/06 22:15:30;;;;;;;4.07;1.98;;;;;;;;;;4777949;29;20594;-85
2022/07/06 22:20:06;;;;;;;4.90;2.50;;;;;;;;;;4798351;29;20051;-85
